Hamilton, Texas
Current Conditions -  °F | °C
As of 9:55 PM on Sunday 23 Nov 2014 (Local Time) from KMNZ Reporting Station
Clear Clear  
Wind Chill: 52°   Ceiling: Unl
Heat Index: 52°   Visibility: 10mi
Dew Point: 38°   Wind: 15mph
Humidity: 60%   Direction: 340°NNW
Pressure: 29.84"   Gusts: 21mph
Location:  31.7°N, 98.12°W
Report Text: KMNZ 240355Z AUTO 34013G18KT 10SM CLR 11/03 A2984 RMK AO2 T01100034
Loading
Personal Weather Stations






























Interactive Weather Map New forecast layout! Learn more

10-Day Weather Forecast

Advertisements
Track Severe Weather on mobile